Terminal Aerodrome Forecast
Issued by NWS North Platte, NE

Home | Current Version | Previous Version | Text Only | Print | Product List | Glossary On
Versions: 1 2 3 4 5 6 7 8 9 10 11 12
000
FTUS43 KLBF 282300
TAFVTN
TAF
KVTN 282320Z 2900/2924 32019G28KT P6SM BKN100
     FM290300 34018G27KT P6SM OVC035
     FM290600 33016G25KT P6SM OVC025
     FM291500 33012G16KT P6SM SCT025
     FM291800 32010KT P6SM SCT250=

USA.gov is the U.S. government's official web portal to all federal, state and local government web resources and services.